CPX256 Details

Departure: Princess Juliana International Airport (TNCM)
Arrival: Grantley Adams International Airport (TBPB)
Route: PJM B520 ANU UA632 BGI


Current Weather Information
TNCM 261000Z 13011KT 090V170 9999 FEW016 BKN038 24/21 Q1015 A2998 TEMPO SHRA
TBPB 261000Z 09019KT 6000 SHRA VCSH BKN014 BKN036 26/21 Q1013 NOSIG